createdAt,value
2022-12-22T00:02:36.959Z,19.70
2022-12-22T00:05:34.940Z,19.38
2022-12-22T00:08:20.821Z,17.58
2022-12-22T00:11:06.485Z,18.45
2022-12-22T00:13:52.183Z,18.10
2022-12-22T00:16:37.706Z,17.02
2022-12-22T00:19:24.217Z,17.60
2022-12-22T00:22:08.985Z,17.77
2022-12-22T00:24:54.310Z,17.58
2022-12-22T00:27:46.490Z,17.00
2022-12-22T00:30:32.928Z,17.35
2022-12-22T00:33:18.848Z,17.35
2022-12-22T00:36:03.729Z,16.48
2022-12-22T00:38:48.622Z,17.33
2022-12-22T00:41:33.625Z,17.40
2022-12-22T00:44:18.427Z,17.63
2022-12-22T00:47:04.354Z,18.65
2022-12-22T00:49:50.849Z,18.90
2022-12-22T00:52:37.611Z,18.88
2022-12-22T00:55:31.291Z,19.58
2022-12-22T00:58:17.189Z,18.20
2022-12-22T01:01:02.181Z,19.48
2022-12-22T01:03:47.241Z,17.25
2022-12-22T01:06:32.735Z,18.55
2022-12-22T01:09:18.181Z,18.00
2022-12-22T01:12:03.047Z,18.35
2022-12-22T01:14:48.073Z,17.30
2022-12-22T01:17:33.632Z,16.95
2022-12-22T01:20:18.646Z,15.85
2022-12-22T01:23:03.686Z,16.63
2022-12-22T01:25:48.560Z,17.40
2022-12-22T01:28:35.000Z,16.75
2022-12-22T01:31:34.653Z,16.75
2022-12-22T01:34:19.663Z,15.88
2022-12-22T01:37:05.061Z,16.98
2022-12-22T01:39:50.084Z,16.58
2022-12-22T01:42:35.411Z,16.52
2022-12-22T01:45:55.972Z,16.30
2022-12-22T01:48:46.223Z,14.93
2022-12-22T01:51:34.122Z,15.23
2022-12-22T01:54:19.574Z,16.65
2022-12-22T01:57:05.455Z,16.30
2022-12-22T01:59:50.610Z,16.48
2022-12-22T02:02:36.328Z,17.35
2022-12-22T02:05:23.562Z,17.42
2022-12-22T02:08:33.772Z,16.08
2022-12-22T02:11:26.526Z,19.00
2022-12-22T02:14:30.767Z,18.45
2022-12-22T02:17:30.507Z,18.00
2022-12-22T02:20:18.603Z,18.40
2022-12-22T02:23:06.605Z,18.75
2022-12-22T02:26:11.498Z,18.55
2022-12-22T02:28:56.525Z,18.90
2022-12-22T02:31:42.579Z,18.23
2022-12-22T02:34:34.155Z,17.67
2022-12-22T02:37:44.507Z,17.80
2022-12-22T02:41:08.631Z,15.93
2022-12-22T02:44:10.159Z,15.43
2022-12-22T02:47:17.936Z,15.15
2022-12-22T02:50:14.095Z,15.70
2022-12-22T02:53:00.237Z,16.75
2022-12-22T02:55:46.337Z,16.40
2022-12-22T02:58:32.675Z,15.48
2022-12-22T03:01:18.326Z,14.82
2022-12-22T03:04:03.559Z,15.73
2022-12-22T03:06:48.878Z,15.80
2022-12-22T03:09:34.057Z,15.32
2022-12-22T03:12:19.157Z,15.25
2022-12-22T03:15:04.207Z,15.85
2022-12-22T03:17:49.673Z,14.85
2022-12-22T03:20:34.730Z,15.43
2022-12-22T03:23:26.448Z,15.73
2022-12-22T03:25:53.984Z,15.63
2022-12-22T03:28:26.390Z,14.35
2022-12-22T03:31:04.863Z,14.63
2022-12-22T03:33:32.241Z,13.40
2022-12-22T03:35:59.743Z,14.63
2022-12-22T03:38:26.773Z,14.90
2022-12-22T03:40:53.769Z,14.25
2022-12-22T03:43:38.721Z,15.00
2022-12-22T03:46:29.234Z,15.23
2022-12-22T03:49:10.133Z,15.40
2022-12-22T03:51:45.153Z,15.82
2022-12-22T03:54:13.755Z,14.95
2022-12-22T03:56:40.868Z,15.57
2022-12-22T03:59:07.836Z,14.43
2022-12-22T04:01:38.612Z,13.32
2022-12-22T04:04:05.439Z,14.05
2022-12-22T04:06:32.161Z,13.88
2022-12-22T04:08:58.864Z,15.07
2022-12-22T04:11:44.610Z,14.57
2022-12-22T04:14:11.376Z,14.82
2022-12-22T04:16:38.250Z,14.57
2022-12-22T04:19:06.583Z,15.63
2022-12-22T04:21:33.433Z,16.73
2022-12-22T04:24:00.419Z,15.40
2022-12-22T04:26:27.530Z,16.75
2022-12-22T04:28:54.810Z,17.20
2022-12-22T04:31:22.417Z,16.98
2022-12-22T04:33:49.632Z,17.45
2022-12-22T04:36:16.680Z,16.60
2022-12-22T04:38:43.392Z,17.75
2022-12-22T04:41:10.137Z,16.75
2022-12-22T04:43:37.193Z,16.20
2022-12-22T04:46:04.034Z,15.57
2022-12-22T04:48:31.509Z,16.80
2022-12-22T04:50:59.777Z,15.70
2022-12-22T04:53:27.790Z,14.15
2022-12-22T04:55:57.220Z,14.55
2022-12-22T04:58:24.039Z,13.90
2022-12-22T05:00:51.092Z,13.20
2022-12-22T05:03:18.044Z,12.18
2022-12-22T05:05:44.896Z,11.13
2022-12-22T05:08:12.077Z,12.43
2022-12-22T05:10:38.946Z,12.23
2022-12-22T05:13:05.749Z,11.20
2022-12-22T05:15:34.103Z,10.65
2022-12-22T05:18:01.794Z,10.98
2022-12-22T05:20:28.862Z,10.35
2022-12-22T05:22:55.777Z,10.57
2022-12-22T05:25:22.503Z,10.70
2022-12-22T05:27:50.361Z,10.38
2022-12-22T05:30:18.028Z,10.50
2022-12-22T05:32:45.111Z,9.63
2022-12-22T05:35:11.895Z,10.50
2022-12-22T05:37:38.846Z,10.73
2022-12-22T05:40:06.427Z,10.05
2022-12-22T05:42:35.929Z,11.82
2022-12-22T05:45:12.198Z,11.27
2022-12-22T05:47:39.407Z,11.52
2022-12-22T05:50:07.012Z,12.00
2022-12-22T05:52:33.633Z,11.25
2022-12-22T05:55:00.340Z,12.07
2022-12-22T05:57:27.130Z,12.77
2022-12-22T05:59:53.903Z,13.07
2022-12-22T06:02:20.842Z,13.95
2022-12-22T06:04:47.854Z,11.77
2022-12-22T06:07:14.733Z,12.38
2022-12-22T06:09:41.756Z,12.77
2022-12-22T06:12:08.824Z,13.32
2022-12-22T06:14:35.820Z,13.65
2022-12-22T06:17:02.661Z,11.98
2022-12-22T06:19:29.481Z,12.80
2022-12-22T06:21:56.293Z,13.15
2022-12-22T06:24:23.098Z,13.52
2022-12-22T06:26:52.561Z,13.75
2022-12-22T06:29:19.321Z,14.50
2022-12-22T06:31:47.004Z,14.48
2022-12-22T06:34:17.846Z,14.48
2022-12-22T06:36:46.099Z,14.93
2022-12-22T06:39:14.478Z,15.52
2022-12-22T06:42:00.096Z,18.20
2022-12-22T06:44:26.949Z,15.40
2022-12-22T06:46:53.893Z,16.63
2022-12-22T06:49:20.797Z,15.75
2022-12-22T06:51:47.546Z,15.82
2022-12-22T06:54:14.556Z,16.45
2022-12-22T06:56:41.272Z,16.50
2022-12-22T06:59:08.084Z,15.63
2022-12-22T07:01:34.961Z,14.52
2022-12-22T07:04:01.967Z,13.57
2022-12-22T07:06:28.745Z,13.70
2022-12-22T07:08:55.543Z,13.57
2022-12-22T07:11:22.346Z,14.95
2022-12-22T07:13:49.213Z,14.55
2022-12-22T07:16:16.071Z,14.52
2022-12-22T07:18:43.352Z,15.40
2022-12-22T07:21:14.652Z,15.75
2022-12-22T07:26:08.947Z,15.98
2022-12-22T07:28:36.879Z,16.88
2022-12-22T07:31:03.792Z,20.65
2022-12-22T07:33:31.908Z,20.63
2022-12-22T07:36:13.567Z,20.98
2022-12-22T07:38:42.151Z,20.65
2022-12-22T07:41:28.720Z,20.25
2022-12-22T07:43:57.827Z,19.67
2022-12-22T07:46:26.604Z,21.10
2022-12-22T07:49:12.213Z,22.45
2022-12-22T07:51:40.948Z,21.50
2022-12-22T07:54:09.547Z,21.02
2022-12-22T07:56:36.647Z,21.23
2022-12-22T07:59:03.925Z,24.10
2022-12-22T08:01:30.838Z,23.13
2022-12-22T08:03:58.259Z,22.98
2022-12-22T08:06:25.896Z,25.73
2022-12-22T08:08:52.952Z,24.88
2022-12-22T08:11:20.070Z,25.70
2022-12-22T08:13:46.825Z,24.35
2022-12-22T08:16:14.339Z,25.92
2022-12-22T08:18:41.731Z,24.75
2022-12-22T08:21:09.346Z,27.23
2022-12-22T08:23:36.496Z,26.50
2022-12-22T08:26:16.730Z,26.88
2022-12-22T08:28:49.695Z,25.48
2022-12-22T08:31:17.022Z,25.20
2022-12-22T08:33:43.717Z,26.42
2022-12-22T08:36:10.785Z,27.15
2022-12-22T08:38:39.690Z,27.65
2022-12-22T08:41:08.774Z,27.85
2022-12-22T08:43:35.452Z,27.48
2022-12-22T08:46:02.163Z,27.40
2022-12-22T08:48:28.905Z,25.33
2022-12-22T08:50:55.623Z,24.88
2022-12-22T08:53:54.016Z,22.10
2022-12-22T08:56:09.133Z,23.88
2022-12-22T08:58:35.861Z,26.25
2022-12-22T09:01:02.729Z,23.77
2022-12-22T09:03:29.685Z,25.13
2022-12-22T09:06:03.008Z,23.88
2022-12-22T09:08:29.709Z,25.58
2022-12-22T09:10:56.444Z,26.38
2022-12-22T09:13:23.226Z,26.98
2022-12-22T09:15:50.094Z,28.08
2022-12-22T09:18:16.795Z,26.77
2022-12-22T09:20:43.513Z,26.70
2022-12-22T09:23:10.469Z,27.00
2022-12-22T09:25:37.141Z,28.42
2022-12-22T09:28:07.375Z,25.38
2022-12-22T09:30:34.060Z,25.58
2022-12-22T09:33:00.748Z,24.10
2022-12-22T09:35:27.392Z,24.23
2022-12-22T09:37:54.021Z,23.83
2022-12-22T09:40:22.235Z,22.92
2022-12-22T09:42:48.914Z,23.60
2022-12-22T09:45:20.138Z,22.52
2022-12-22T09:50:27.055Z,22.75
2022-12-22T09:52:56.482Z,23.13
2022-12-22T09:55:25.958Z,22.95
2022-12-22T09:57:55.874Z,23.48
2022-12-22T10:00:28.314Z,24.20
2022-12-22T10:03:00.890Z,25.13
2022-12-22T10:05:38.565Z,24.85
2022-12-22T10:08:11.870Z,24.58
2022-12-22T10:10:39.215Z,24.95
2022-12-22T10:13:07.120Z,25.65
2022-12-22T10:15:40.163Z,24.08
2022-12-22T10:18:14.745Z,24.67
2022-12-22T10:20:43.362Z,24.52
2022-12-22T10:23:28.367Z,25.60
2022-12-22T10:28:43.288Z,26.52
2022-12-22T10:31:25.300Z,26.73
2022-12-22T10:33:55.152Z,25.33
2022-12-22T10:36:28.016Z,27.15
2022-12-22T10:39:02.145Z,26.42
2022-12-22T10:41:31.667Z,28.45
2022-12-22T10:44:05.272Z,28.15
2022-12-22T10:46:47.958Z,27.85
2022-12-22T10:49:29.942Z,26.40
2022-12-22T10:52:21.231Z,27.40
2022-12-22T10:54:50.846Z,24.63
2022-12-22T10:57:17.570Z,24.88
2022-12-22T10:59:54.031Z,21.67
2022-12-22T11:02:20.864Z,24.08
2022-12-22T11:04:48.683Z,22.77
2022-12-22T11:07:15.503Z,22.58
2022-12-22T11:09:42.322Z,22.38
2022-12-22T11:12:13.860Z,22.02
2022-12-22T11:14:48.177Z,22.15
2022-12-22T11:17:43.447Z,21.35
2022-12-22T11:20:42.708Z,24.00
2022-12-22T11:23:34.463Z,20.65
2022-12-22T11:26:16.304Z,21.42
2022-12-22T11:28:57.962Z,19.55
2022-12-22T11:31:57.066Z,18.20
2022-12-22T11:35:20.796Z,18.65
2022-12-22T11:37:51.818Z,17.73
2022-12-22T11:40:26.936Z,18.35
2022-12-22T11:43:03.851Z,18.10
2022-12-22T11:45:43.579Z,16.77
2022-12-22T11:48:34.855Z,16.92
2022-12-22T11:51:33.756Z,16.65
2022-12-22T11:54:31.042Z,17.02
2022-12-22T11:57:28.714Z,16.33
2022-12-22T12:00:28.332Z,18.42
2022-12-22T12:03:38.713Z,18.25
2022-12-22T12:06:37.109Z,18.63
2022-12-22T12:09:36.215Z,19.38
2022-12-22T12:12:11.798Z,19.13
2022-12-22T12:15:05.406Z,19.50
2022-12-22T12:18:01.961Z,19.48
2022-12-22T12:20:43.345Z,19.52
2022-12-22T12:23:46.874Z,20.33
2022-12-22T12:26:23.878Z,19.33
2022-12-22T12:29:28.040Z,18.58
2022-12-22T12:31:57.668Z,19.60
2022-12-22T12:34:24.622Z,19.45
2022-12-22T12:37:14.420Z,18.77
2022-12-22T12:39:46.943Z,20.70
2022-12-22T12:42:16.490Z,17.88
2022-12-22T12:44:43.380Z,15.57
2022-12-22T12:47:23.158Z,15.52
2022-12-22T12:49:53.663Z,14.95
2022-12-22T12:52:40.415Z,14.50
2022-12-22T12:55:32.730Z,13.07
2022-12-22T12:58:02.432Z,13.85
2022-12-22T13:00:32.274Z,12.25
2022-12-22T13:03:02.382Z,12.65
2022-12-22T13:05:50.372Z,12.30
2022-12-22T13:08:24.122Z,12.27
2022-12-22T13:10:53.671Z,12.70
2022-12-22T13:13:23.154Z,12.48
2022-12-22T13:16:02.020Z,11.25
2022-12-22T13:18:34.711Z,12.43
2022-12-22T13:21:52.345Z,12.15
2022-12-22T13:24:28.700Z,12.20
2022-12-22T13:27:03.124Z,12.13
2022-12-22T13:29:44.717Z,13.20
2022-12-22T13:32:22.415Z,13.82
2022-12-22T13:35:32.517Z,12.68
2022-12-22T13:38:00.278Z,13.30
2022-12-22T13:40:32.460Z,12.13
2022-12-22T13:43:15.987Z,12.48
2022-12-22T13:45:45.588Z,12.23
2022-12-22T13:48:33.992Z,10.95
2022-12-22T13:51:04.315Z,10.80
2022-12-22T13:56:37.672Z,11.02
2022-12-22T13:59:04.923Z,10.23
2022-12-22T14:01:31.960Z,11.18
2022-12-22T14:04:04.384Z,10.82
2022-12-22T14:06:36.123Z,10.40
2022-12-22T14:09:20.109Z,11.05
2022-12-22T14:11:53.328Z,11.35
2022-12-22T14:14:23.928Z,11.45
2022-12-22T14:16:52.421Z,12.55
2022-12-22T14:19:22.043Z,12.32
2022-12-22T14:21:54.603Z,12.55
2022-12-22T14:24:24.796Z,13.43
2022-12-22T14:26:52.388Z,12.43
2022-12-22T14:29:22.029Z,13.82
2022-12-22T14:31:56.608Z,13.27
2022-12-22T14:34:31.386Z,12.95
2022-12-22T14:36:59.126Z,12.10
2022-12-22T14:39:31.719Z,11.68
2022-12-22T14:42:01.368Z,11.65
2022-12-22T14:44:43.822Z,10.52
2022-12-22T14:47:16.195Z,10.60
2022-12-22T14:49:45.401Z,8.98
2022-12-22T14:52:42.762Z,9.30
2022-12-22T14:55:37.096Z,10.02
2022-12-22T14:58:11.137Z,9.02
2022-12-22T15:00:39.938Z,9.48
2022-12-22T15:03:33.765Z,9.10
2022-12-22T15:06:24.829Z,9.88
2022-12-22T15:08:55.132Z,9.60
2022-12-22T15:11:23.771Z,9.20
2022-12-22T15:13:50.517Z,10.45
2022-12-22T15:16:19.556Z,10.50
2022-12-22T15:18:46.966Z,11.20
2022-12-22T15:21:15.255Z,11.57
2022-12-22T15:23:41.902Z,11.93
2022-12-22T15:26:08.542Z,12.52
2022-12-22T15:28:35.187Z,12.48
2022-12-22T15:31:02.866Z,12.02
2022-12-22T15:33:30.259Z,11.38
2022-12-22T15:35:57.444Z,12.48
2022-12-22T15:38:25.292Z,12.80
2022-12-22T15:40:52.471Z,11.73
2022-12-22T15:46:07.057Z,11.00
2022-12-22T15:48:38.607Z,10.73
2022-12-22T15:53:33.099Z,11.93
2022-12-22T15:55:59.734Z,10.23
2022-12-22T15:58:29.373Z,10.85
2022-12-22T16:00:55.967Z,10.82
2022-12-22T16:03:22.842Z,10.70
2022-12-22T16:05:49.480Z,10.65
2022-12-22T16:08:18.641Z,11.95
2022-12-22T16:10:47.762Z,12.38
2022-12-22T16:13:15.747Z,11.82
2022-12-22T16:15:42.840Z,12.40
2022-12-22T16:18:12.688Z,12.82
2022-12-22T16:20:41.555Z,12.55
2022-12-22T16:23:15.072Z,12.15
2022-12-22T16:25:43.953Z,12.70
2022-12-22T16:28:20.353Z,12.70
2022-12-22T16:30:47.570Z,12.02
2022-12-22T16:33:15.020Z,12.23
2022-12-22T16:35:41.788Z,13.43
2022-12-22T16:38:13.010Z,13.23
2022-12-22T16:40:50.952Z,13.65
2022-12-22T16:46:07.200Z,14.43
2022-12-22T16:48:38.130Z,14.00
2022-12-22T16:51:04.784Z,12.02
2022-12-22T16:53:31.338Z,13.40
2022-12-22T16:55:59.854Z,13.13
2022-12-22T16:58:27.100Z,11.55
2022-12-22T17:00:54.098Z,12.20
2022-12-22T17:03:24.389Z,11.27
2022-12-22T17:05:58.625Z,11.27
2022-12-22T17:08:28.145Z,12.57
2022-12-22T17:10:57.019Z,12.25
2022-12-22T17:13:23.913Z,10.95
2022-12-22T17:15:50.489Z,11.80
2022-12-22T17:18:22.082Z,11.45
2022-12-22T17:20:50.705Z,11.25
2022-12-22T17:23:36.641Z,11.15
2022-12-22T17:26:06.527Z,10.85
2022-12-22T17:28:33.778Z,11.40
2022-12-22T17:31:00.512Z,11.85
2022-12-22T17:33:27.090Z,11.93
2022-12-22T17:35:53.954Z,11.57
2022-12-22T17:38:21.760Z,10.93
2022-12-22T17:40:49.210Z,12.20
2022-12-22T17:43:20.220Z,12.10
2022-12-22T17:45:47.517Z,12.10
2022-12-22T17:48:15.576Z,12.45
2022-12-22T17:50:49.429Z,11.95
2022-12-22T17:53:19.016Z,11.88
2022-12-22T17:58:33.243Z,12.05
2022-12-22T18:00:59.811Z,11.35
2022-12-22T18:03:26.407Z,11.65
2022-12-22T18:05:54.928Z,11.60
2022-12-22T18:08:21.574Z,11.95
2022-12-22T18:10:48.299Z,13.98
2022-12-22T18:13:24.213Z,13.30
2022-12-22T18:15:51.106Z,13.75
2022-12-22T18:18:18.173Z,13.07
2022-12-22T18:20:46.903Z,14.05
2022-12-22T18:23:33.692Z,12.95
2022-12-22T18:26:00.283Z,13.13
2022-12-22T18:28:26.861Z,13.25
2022-12-22T18:30:53.475Z,13.05
2022-12-22T18:33:20.082Z,12.90
2022-12-22T18:35:47.530Z,12.80
2022-12-22T18:38:25.032Z,11.98
2022-12-22T18:40:52.024Z,12.35
2022-12-22T18:43:18.640Z,12.40
2022-12-22T18:45:45.363Z,12.43
2022-12-22T18:48:12.060Z,11.57
2022-12-22T18:50:39.953Z,11.63
2022-12-22T18:53:24.139Z,10.70
2022-12-22T18:55:50.827Z,11.35
2022-12-22T18:58:17.617Z,11.13
2022-12-22T19:00:44.542Z,10.77
2022-12-22T19:03:20.350Z,10.73
2022-12-22T19:05:47.691Z,11.02
2022-12-22T19:08:19.836Z,9.98
2022-12-22T19:11:05.609Z,10.60
2022-12-22T19:13:34.594Z,10.52
2022-12-22T19:16:01.672Z,10.02
2022-12-22T19:18:28.510Z,11.43
2022-12-22T19:20:55.974Z,10.38
2022-12-22T19:23:24.470Z,10.80
2022-12-22T19:25:53.084Z,9.85
2022-12-22T19:28:27.409Z,11.57
2022-12-22T19:30:54.935Z,9.52
2022-12-22T19:33:26.411Z,10.40
2022-12-22T19:35:53.057Z,11.20
2022-12-22T19:38:22.081Z,10.38
2022-12-22T19:40:50.710Z,10.35
2022-12-22T19:43:18.704Z,9.95
2022-12-22T19:45:48.073Z,10.10
2022-12-22T19:48:26.071Z,10.30
2022-12-22T19:50:53.510Z,9.30
2022-12-22T19:53:20.892Z,8.57
2022-12-22T19:55:55.467Z,9.93
2022-12-22T19:58:24.553Z,10.45
2022-12-22T20:00:52.077Z,9.60
2022-12-22T20:03:24.411Z,9.90
2022-12-22T20:05:52.972Z,10.02
2022-12-22T20:08:19.594Z,8.75
2022-12-22T20:10:46.484Z,9.07
2022-12-22T20:13:16.651Z,9.52
2022-12-22T20:15:43.313Z,9.60
2022-12-22T20:18:24.765Z,9.02
2022-12-22T20:23:34.673Z,8.63
2022-12-22T20:26:04.632Z,8.43
2022-12-22T20:28:38.721Z,9.63
2022-12-22T20:31:06.905Z,9.18
2022-12-22T20:33:34.741Z,9.07
2022-12-22T20:36:02.470Z,10.65
2022-12-22T20:38:37.565Z,9.80
2022-12-22T20:41:05.598Z,9.82
2022-12-22T20:43:33.103Z,9.60
2022-12-22T20:46:19.000Z,9.38
2022-12-22T20:48:51.741Z,8.25
2022-12-22T20:51:20.028Z,8.18
2022-12-22T20:53:47.751Z,8.27
2022-12-22T20:56:31.567Z,8.65
2022-12-22T20:58:59.765Z,8.80
2022-12-22T21:01:26.659Z,8.10
2022-12-22T21:03:53.304Z,8.18
2022-12-22T21:06:22.768Z,9.95
2022-12-22T21:08:49.508Z,8.77
2022-12-22T21:11:16.067Z,9.65
2022-12-22T21:13:42.834Z,8.57
2022-12-22T21:16:22.941Z,9.98
2022-12-22T21:18:50.556Z,8.52
2022-12-22T21:21:17.117Z,6.40
2022-12-22T21:23:43.698Z,6.97
2022-12-22T21:26:32.210Z,9.27
2022-12-22T21:29:00.176Z,7.72
2022-12-22T21:31:26.882Z,8.13
2022-12-22T21:33:53.528Z,7.75
2022-12-22T21:36:28.877Z,7.72
2022-12-22T21:38:58.686Z,8.38
2022-12-22T21:41:45.221Z,7.57
2022-12-22T21:44:13.161Z,7.53
2022-12-22T21:46:44.541Z,8.93
2022-12-22T21:49:21.713Z,7.60
2022-12-22T21:51:49.640Z,8.88
2022-12-22T21:54:17.425Z,7.57
2022-12-22T21:56:43.945Z,8.82
2022-12-22T21:59:10.781Z,7.38
2022-12-22T22:01:37.887Z,7.20
2022-12-22T22:04:04.674Z,7.72
2022-12-22T22:06:31.223Z,7.82
2022-12-22T22:08:57.792Z,6.97
2022-12-22T22:11:25.383Z,6.95
2022-12-22T22:13:53.151Z,7.55
2022-12-22T22:16:20.027Z,7.22
2022-12-22T22:18:47.526Z,7.10
2022-12-22T22:21:15.643Z,7.68
2022-12-22T22:23:42.555Z,7.40
2022-12-22T22:26:09.421Z,8.43
2022-12-22T22:28:36.095Z,7.53
2022-12-22T22:31:09.082Z,6.85
2022-12-22T22:33:35.617Z,8.27
2022-12-22T22:36:07.084Z,7.68
2022-12-22T22:38:33.704Z,4.60
2022-12-22T22:41:00.279Z,6.40
2022-12-22T22:43:26.861Z,6.57
2022-12-22T22:45:53.409Z,7.43
2022-12-22T22:48:22.383Z,6.72
2022-12-22T22:50:49.460Z,7.38
2022-12-22T22:53:16.284Z,6.75
2022-12-22T22:55:42.845Z,7.22
2022-12-22T22:58:11.384Z,6.90
2022-12-22T23:00:38.531Z,8.05
2022-12-22T23:03:05.445Z,6.95
2022-12-22T23:05:32.073Z,7.18
2022-12-22T23:07:58.579Z,7.38
2022-12-22T23:10:25.154Z,7.88
2022-12-22T23:12:52.090Z,7.55
2022-12-22T23:15:18.787Z,7.43
2022-12-22T23:17:45.384Z,8.45
2022-12-22T23:20:12.014Z,7.82
2022-12-22T23:22:38.802Z,9.40
2022-12-22T23:25:05.550Z,7.80
2022-12-22T23:27:32.108Z,6.80
2022-12-22T23:29:58.612Z,7.63
2022-12-22T23:32:25.120Z,7.13
2022-12-22T23:34:51.996Z,6.97
2022-12-22T23:37:19.742Z,6.90
2022-12-22T23:39:46.788Z,7.97
2022-12-22T23:42:13.418Z,8.05
2022-12-22T23:44:39.994Z,6.68
2022-12-22T23:47:06.815Z,7.78
2022-12-22T23:49:33.396Z,7.07
2022-12-22T23:52:00.249Z,7.82
2022-12-22T23:54:29.260Z,7.07
2022-12-22T23:56:55.821Z,7.68
2022-12-22T23:59:22.468Z,7.65
